Time;durP1;ratioP1;P1;durP2;ratioP2;P2;SDS_P1;SDS_P2;PMS_P1;PMS_P2;Temp;Humidity;BMP_temperature;BMP_pressure;BME280_temperature;BME280_humidity;BME280_pressure;Samples;Min_cycle;Max_cycle;Signal;HPM_P1;HPM_P2
2022/05/06 00:02:07;;;;;;;0.00;0.00;;;12.90;99.90;;;;;;5053462;28;20033;-76
2022/05/06 00:04:33;;;;;;;0.00;0.00;;;13.00;99.90;;;;;;5054292;28;20241;-75
2022/05/06 00:06:59;;;;;;;0.00;0.00;;;13.20;99.90;;;;;;5052644;28;20037;-76
2022/05/06 00:09:27;;;;;;;0.00;0.00;;;13.30;99.90;;;;;;5052981;28;20104;-76
2022/05/06 00:11:53;;;;;;;0.63;0.63;;;13.40;99.90;;;;;;5052497;28;20052;-76
2022/05/06 00:14:20;;;;;;;0.00;0.00;;;13.60;99.90;;;;;;5053874;28;20095;-76
2022/05/06 00:16:46;;;;;;;0.00;0.00;;;13.60;99.90;;;;;;5051770;28;20106;-76
2022/05/06 00:19:12;;;;;;;0.00;0.00;;;13.60;99.90;;;;;;5053733;28;20029;-76
2022/05/06 00:21:38;;;;;;;0.88;0.88;;;13.70;99.90;;;;;;5052430;28;20083;-76
2022/05/06 00:24:05;;;;;;;0.00;0.00;;;13.80;99.90;;;;;;5053550;28;20074;-75
2022/05/06 00:26:31;;;;;;;0.00;0.00;;;13.90;99.90;;;;;;5053509;28;20029;-75
2022/05/06 00:28:57;;;;;;;0.00;0.00;;;14.10;99.90;;;;;;5053906;28;20115;-75
2022/05/06 00:31:23;;;;;;;0.00;0.00;;;14.20;99.90;;;;;;5052175;28;20455;-75
2022/05/06 00:33:49;;;;;;;0.13;0.13;;;14.30;99.90;;;;;;5054016;28;20528;-75
2022/05/06 00:36:15;;;;;;;0.00;0.00;;;14.20;99.90;;;;;;5053886;28;20105;-75
2022/05/06 00:38:42;;;;;;;0.43;0.43;;;14.10;99.90;;;;;;5053623;28;20108;-75
2022/05/06 00:41:09;;;;;;;0.00;0.00;;;14.20;99.90;;;;;;5052347;28;20025;-75
2022/05/06 00:43:44;;;;;;;0.00;0.00;;;14.20;99.90;;;;;;5053696;28;20484;-76
2022/05/06 00:46:15;;;;;;;0.00;0.00;;;14.20;99.90;;;;;;5051818;28;20032;-76
2022/05/06 00:48:44;;;;;;;0.25;0.25;;;14.80;99.90;;;;;;5074290;28;20029;-74
2022/05/06 00:51:11;;;;;;;0.00;0.00;;;15.50;99.90;;;;;;5067433;28;20048;-76
2022/05/06 00:53:40;;;;;;;0.00;0.00;;;16.30;99.90;;;;;;5042020;28;20034;-75
2022/05/06 00:56:10;;;;;;;0.00;0.00;;;17.10;99.90;;;;;;5033468;28;20030;-76
2022/05/06 00:58:36;;;;;;;0.03;0.03;;;18.20;99.90;;;;;;5037074;28;20019;-76
2022/05/06 01:01:09;;;;;;;0.00;0.00;;;18.80;99.90;;;;;;5052947;28;20036;-76
2022/05/06 01:03:35;;;;;;;0.00;0.00;;;19.20;99.90;;;;;;5051573;28;20065;-76
2022/05/06 01:06:07;;;;;;;0.00;0.00;;;19.90;99.90;;;;;;5051209;28;20032;-76
2022/05/06 01:08:34;;;;;;;0.00;0.00;;;20.10;99.90;;;;;;5052762;28;20029;-75
2022/05/06 01:11:01;;;;;;;0.28;0.28;;;20.50;99.90;;;;;;5051190;28;20029;-76
2022/05/06 01:13:28;;;;;;;0.00;0.00;;;20.50;99.90;;;;;;5051518;28;20031;-76
2022/05/06 01:15:57;;;;;;;0.08;0.08;;;20.50;99.90;;;;;;5052317;28;20157;-76
2022/05/06 01:18:23;;;;;;;0.00;0.00;;;20.40;99.90;;;;;;5051383;28;20078;-75
2022/05/06 01:20:54;;;;;;;0.00;0.00;;;20.30;99.90;;;;;;5039307;28;20029;-76
2022/05/06 01:23:22;;;;;;;0.00;0.00;;;20.60;99.90;;;;;;5032744;28;20018;-75
2022/05/06 01:25:49;;;;;;;0.00;0.00;;;20.50;99.90;;;;;;5033718;28;20028;-75
2022/05/06 01:28:16;;;;;;;0.00;0.00;;;21.00;99.90;;;;;;5049589;28;20055;-75
2022/05/06 01:30:45;;;;;;;0.47;0.47;;;21.40;99.90;;;;;;5050914;28;20022;-75
2022/05/06 01:33:21;;;;;;;0.95;0.43;;;21.10;99.90;;;;;;5048338;28;20021;-75
2022/05/06 01:35:57;;;;;;;0.13;0.13;;;20.80;99.90;;;;;;5041963;28;20470;-76
2022/05/06 01:38:44;;;;;;;6.22;4.13;;;20.70;99.90;;;;;;5035061;28;20030;-75
2022/05/06 01:41:16;;;;;;;1.30;1.13;;;20.70;99.90;;;;;;5034498;28;20037;-75
2022/05/06 01:43:50;;;;;;;1.45;1.35;;;20.70;99.90;;;;;;5044751;28;20488;-77
2022/05/06 01:46:19;;;;;;;0.20;0.20;;;20.70;99.90;;;;;;5040359;28;20368;-75
2022/05/06 01:48:47;;;;;;;3.53;2.90;;;20.50;99.90;;;;;;5036148;28;20076;-76
2022/05/06 01:51:17;;;;;;;18.00;10.55;;;20.50;99.90;;;;;;5043210;28;20450;-79
2022/05/06 01:53:44;;;;;;;0.38;0.38;;;20.50;99.90;;;;;;5040665;28;20033;-76
2022/05/06 01:56:10;;;;;;;1.10;1.10;;;20.30;99.90;;;;;;5040700;28;20478;-76
2022/05/06 01:58:37;;;;;;;0.05;0.05;;;20.60;99.90;;;;;;5053764;28;20031;-76
2022/05/06 02:01:03;;;;;;;1.15;1.08;;;20.80;99.90;;;;;;5049119;28;20040;-78
2022/05/06 02:06:13;;;;;;;0.63;0.17;;;21.00;99.90;;;;;;5044175;28;20138;-78
2022/05/06 02:08:39;;;;;;;0.45;0.28;;;21.30;99.90;;;;;;5051836;28;20033;-77
2022/05/06 02:11:06;;;;;;;4.00;3.72;;;22.50;99.90;;;;;;5054709;28;20071;-76
2022/05/06 02:13:33;;;;;;;0.00;0.00;;;23.00;98.70;;;;;;5048528;28;20102;-75
2022/05/06 02:15:59;;;;;;;0.00;0.00;;;23.20;94.50;;;;;;5038290;28;20408;-76
2022/05/06 02:18:28;;;;;;;0.00;0.00;;;23.20;95.30;;;;;;5049138;28;20028;-76
2022/05/06 02:20:58;;;;;;;0.00;0.00;;;22.60;93.00;;;;;;5047489;28;20079;-76
2022/05/06 02:23:25;;;;;;;0.10;0.10;;;23.20;91.90;;;;;;5040197;28;20025;-76
2022/05/06 02:25:51;;;;;;;0.10;0.10;;;22.90;90.70;;;;;;5037694;28;20035;-76
2022/05/06 02:28:17;;;;;;;0.22;0.22;;;22.20;99.40;;;;;;5048715;28;20024;-75
2022/05/06 02:33:30;;;;;;;2.10;1.50;;;22.70;93.30;;;;;;5049112;28;20044;-76
2022/05/06 02:36:00;;;;;;;0.40;0.40;;;23.20;92.00;;;;;;5044078;28;20029;-76
2022/05/06 02:38:27;;;;;;;1.23;1.02;;;23.20;93.70;;;;;;5047950;28;20029;-76
2022/05/06 02:40:53;;;;;;;0.10;0.10;;;23.70;94.10;;;;;;5042334;28;20029;-76
2022/05/06 02:43:19;;;;;;;0.00;0.00;;;23.30;98.10;;;;;;5048708;28;20036;-77
2022/05/06 02:45:48;;;;;;;7.00;2.45;;;23.20;99.90;;;;;;5037952;28;20029;-76
2022/05/06 02:48:14;;;;;;;0.00;0.00;;;23.70;98.10;;;;;;5045408;28;20525;-77
2022/05/06 02:50:43;;;;;;;0.00;0.00;;;23.40;99.90;;;;;;5047104;28;20511;-76
2022/05/06 02:53:09;;;;;;;0.25;0.25;;;23.20;99.90;;;;;;5038819;28;20100;-76
2022/05/06 02:55:35;;;;;;;0.00;0.00;;;23.40;99.90;;;;;;5046406;28;20381;-76
2022/05/06 02:58:03;;;;;;;1.20;1.17;;;23.20;99.90;;;;;;5048515;28;20052;-72
2022/05/06 03:00:29;;;;;;;1.65;1.55;;;23.10;99.90;;;;;;5044953;28;20018;-72
2022/05/06 03:02:56;;;;;;;0.22;0.22;;;23.40;98.70;;;;;;5045661;28;20053;-72
2022/05/06 03:05:23;;;;;;;0.20;0.20;;;23.60;94.50;;;;;;5047205;28;20025;-72
2022/05/06 03:07:50;;;;;;;0.57;0.40;;;23.60;95.30;;;;;;5048581;28;20522;-71
2022/05/06 03:10:16;;;;;;;1.70;1.35;;;23.30;96.70;;;;;;5046808;28;20022;-71
2022/05/06 03:12:48;;;;;;;0.00;0.00;;;22.70;99.90;;;;;;5046200;28;20025;-72
2022/05/06 03:15:15;;;;;;;1.70;1.60;;;23.00;99.90;;;;;;5039927;28;20024;-71
2022/05/06 03:17:41;;;;;;;2.20;0.95;;;22.70;99.90;;;;;;5045565;28;20074;-72
2022/05/06 03:20:10;;;;;;;0.80;0.43;;;22.90;99.00;;;;;;5049254;28;20059;-72
2022/05/06 03:22:42;;;;;;;2.88;1.05;;;22.90;97.80;;;;;;5050642;28;20021;-72
2022/05/06 03:25:12;;;;;;;0.00;0.00;;;22.60;99.40;;;;;;5048556;28;20025;-72
2022/05/06 03:30:24;;;;;;;2.42;1.50;;;22.00;99.90;;;;;;5045190;28;20427;-73
2022/05/06 03:32:50;;;;;;;4.10;2.42;;;21.60;99.90;;;;;;5043491;28;20396;-72
2022/05/06 03:35:18;;;;;;;1.50;1.13;;;21.50;99.90;;;;;;5049578;28;20021;-72
2022/05/06 03:37:47;;;;;;;0.57;0.57;;;21.10;99.90;;;;;;5046678;28;20401;-72
2022/05/06 03:40:14;;;;;;;0.20;0.20;;;21.10;99.90;;;;;;5047493;28;20025;-74
2022/05/06 03:42:41;;;;;;;1.60;1.10;;;21.10;99.90;;;;;;5044318;28;21562;-71
2022/05/06 03:45:09;;;;;;;2.53;1.75;;;21.30;99.90;;;;;;5047322;28;20029;-71
2022/05/06 03:47:36;;;;;;;1.50;1.35;;;21.40;99.90;;;;;;5046683;28;20378;-71
2022/05/06 03:52:48;;;;;;;0.75;0.65;;;21.50;99.90;;;;;;5045599;28;20035;-73
2022/05/06 03:55:15;;;;;;;1.90;1.80;;;21.70;99.90;;;;;;5046270;28;20497;-71
2022/05/06 03:57:42;;;;;;;0.00;0.00;;;21.70;99.90;;;;;;5039031;28;20039;-73
2022/05/06 04:00:10;;;;;;;0.00;0.00;;;21.60;99.90;;;;;;5047918;28;20036;-73
2022/05/06 04:02:36;;;;;;;1.70;0.95;;;21.30;99.90;;;;;;5040777;28;20053;-74
2022/05/06 04:05:04;;;;;;;1.63;0.82;;;21.60;99.90;;;;;;5051015;28;20488;-74
2022/05/06 04:07:30;;;;;;;0.68;0.68;;;21.50;99.90;;;;;;5043738;28;20033;-75
2022/05/06 04:09:56;;;;;;;3.22;2.92;;;21.70;99.90;;;;;;5038317;28;20056;-75
2022/05/06 04:12:23;;;;;;;7.88;2.13;;;21.60;99.90;;;;;;5039063;28;20033;-73
2022/05/06 04:14:52;;;;;;;1.40;1.30;;;21.10;99.90;;;;;;5044237;28;20447;-74
2022/05/06 04:17:20;;;;;;;0.73;0.47;;;21.20;99.90;;;;;;5041107;28;20029;-73
2022/05/06 04:25:18;;;;;;;0.35;0.32;;;21.50;99.90;;;;;;5042531;28;20067;-73
2022/05/06 04:27:45;;;;;;;0.00;0.00;;;21.90;99.90;;;;;;5042432;28;20373;-74
2022/05/06 04:30:12;;;;;;;1.17;1.08;;;22.00;99.90;;;;;;5037856;28;20052;-76
2022/05/06 04:32:38;;;;;;;1.88;1.77;;;22.20;99.90;;;;;;5044054;28;20033;-73
2022/05/06 04:35:06;;;;;;;0.00;0.00;;;22.20;99.90;;;;;;5042285;28;20448;-73
2022/05/06 04:37:32;;;;;;;0.00;0.00;;;22.10;99.90;;;;;;5048383;28;20029;-73
2022/05/06 04:39:59;;;;;;;4.13;3.55;;;21.90;99.90;;;;;;5040062;28;20021;-74
2022/05/06 04:42:25;;;;;;;8.68;1.45;;;22.10;99.90;;;;;;5040481;28;20420;-74
2022/05/06 04:44:52;;;;;;;1.75;1.00;;;21.90;99.90;;;;;;5042439;28;20044;-73
2022/05/06 04:47:18;;;;;;;0.47;0.30;;;22.00;99.90;;;;;;5048213;28;20033;-74
2022/05/06 04:49:44;;;;;;;14.70;5.28;;;21.50;99.90;;;;;;5037032;28;20035;-74
2022/05/06 04:52:10;;;;;;;6.32;2.65;;;21.70;99.90;;;;;;5048165;28;20104;-74
2022/05/06 04:54:37;;;;;;;0.00;0.00;;;21.60;99.90;;;;;;5048473;28;20049;-74
2022/05/06 04:57:04;;;;;;;0.00;0.00;;;21.90;99.90;;;;;;5037829;28;20021;-75
2022/05/06 04:59:30;;;;;;;0.32;0.30;;;22.10;99.90;;;;;;5041482;28;20457;-74
2022/05/06 05:01:56;;;;;;;3.08;2.35;;;22.20;99.90;;;;;;5039865;28;20126;-75
2022/05/06 05:04:27;;;;;;;0.00;0.00;;;22.30;99.90;;;;;;5045783;28;20055;-75
2022/05/06 05:06:54;;;;;;;1.00;1.00;;;22.20;99.90;;;;;;5041183;28;20053;-74
2022/05/06 05:09:21;;;;;;;0.50;0.50;;;22.40;99.90;;;;;;5044626;28;20048;-75
2022/05/06 05:11:47;;;;;;;4.63;3.33;;;22.10;99.90;;;;;;5038758;28;20039;-75
2022/05/06 05:14:14;;;;;;;3.28;1.73;;;22.00;99.90;;;;;;5042777;28;20104;-74
2022/05/06 05:16:40;;;;;;;2.97;0.77;;;22.10;99.90;;;;;;5045049;28;20491;-73
2022/05/06 05:19:06;;;;;;;2.28;1.00;;;21.80;99.90;;;;;;5042798;28;20060;-73
2022/05/06 05:21:32;;;;;;;7.28;3.38;;;21.90;99.90;;;;;;5045266;28;20052;-75
2022/05/06 05:23:58;;;;;;;3.35;0.82;;;21.80;99.90;;;;;;5039068;28;20029;-74
2022/05/06 05:26:25;;;;;;;0.08;0.08;;;21.70;99.90;;;;;;5071515;28;20491;-74
2022/05/06 05:28:52;;;;;;;1.65;1.52;;;21.70;99.90;;;;;;5040217;28;20036;-75
2022/05/06 05:31:18;;;;;;;0.90;0.85;;;21.70;99.90;;;;;;5039166;28;20052;-71
2022/05/06 05:33:44;;;;;;;1.75;1.38;;;21.60;99.90;;;;;;5037731;28;20022;-72
2022/05/06 05:36:10;;;;;;;0.10;0.10;;;21.80;99.90;;;;;;5042103;28;20021;-71
2022/05/06 05:38:38;;;;;;;2.45;1.00;;;21.80;99.90;;;;;;5041833;28;20029;-71
2022/05/06 05:41:05;;;;;;;0.00;0.00;;;22.00;99.90;;;;;;5039246;28;20028;-72
2022/05/06 05:48:59;;;;;;;2.72;1.88;;;22.20;98.70;;;;;;5034125;28;20094;-73
2022/05/06 05:51:26;;;;;;;2.60;1.15;;;22.20;98.70;;;;;;5040851;28;20039;-73
2022/05/06 05:53:52;;;;;;;2.55;2.35;;;22.40;94.50;;;;;;5038028;28;20137;-73
2022/05/06 05:56:18;;;;;;;0.00;0.00;;;22.40;90.50;;;;;;5045260;28;20025;-72
2022/05/06 05:58:45;;;;;;;0.00;0.00;;;22.40;85.90;;;;;;5048528;28;20040;-72
2022/05/06 06:01:11;;;;;;;0.85;0.50;;;22.50;91.70;;;;;;5057147;28;20082;-74
2022/05/06 06:03:37;;;;;;;2.97;2.42;;;22.80;90.90;;;;;;5060303;28;20033;-73
2022/05/06 06:06:04;;;;;;;3.20;0.82;;;22.30;93.20;;;;;;5045163;28;20026;-73
2022/05/06 06:08:30;;;;;;;8.10;0.82;;;22.50;92.20;;;;;;5043328;28;20435;-72
2022/05/06 06:10:56;;;;;;;0.32;0.32;;;22.80;91.80;;;;;;5055567;28;20029;-72
2022/05/06 06:13:22;;;;;;;3.65;1.65;;;22.90;91.80;;;;;;5042011;28;20017;-72
2022/05/06 06:15:48;;;;;;;7.88;2.22;;;22.90;91.70;;;;;;5040603;28;20366;-72
2022/05/06 06:18:15;;;;;;;2.75;1.33;;;22.90;90.70;;;;;;5047244;28;20358;-72
2022/05/06 06:20:41;;;;;;;3.72;0.73;;;22.70;94.50;;;;;;5038237;28;20029;-73
2022/05/06 06:23:07;;;;;;;1.35;0.82;;;22.80;92.40;;;;;;5043770;28;20055;-73
2022/05/06 06:25:34;;;;;;;2.92;1.27;;;22.90;92.90;;;;;;5042005;28;20061;-73
2022/05/06 06:28:00;;;;;;;0.00;0.00;;;22.90;91.90;;;;;;5044086;28;20059;-73
2022/05/06 06:30:26;;;;;;;0.10;0.10;;;22.60;92.30;;;;;;5045994;28;20033;-71
2022/05/06 06:32:52;;;;;;;1.40;1.20;;;22.70;92.10;;;;;;5044260;28;20401;-72
2022/05/06 06:35:18;;;;;;;0.00;0.00;;;22.80;90.70;;;;;;5043499;28;20112;-72
2022/05/06 06:37:45;;;;;;;14.43;5.72;;;22.80;92.10;;;;;;5046787;28;20028;-70
2022/05/06 06:40:11;;;;;;;2.78;1.60;;;23.10;92.10;;;;;;5045709;28;20046;-72
2022/05/06 06:42:37;;;;;;;0.55;0.55;;;23.30;90.30;;;;;;5047985;28;20030;-72
2022/05/06 06:45:05;;;;;;;0.22;0.22;;;23.30;86.90;;;;;;5051076;28;20117;-72
2022/05/06 06:47:31;;;;;;;3.10;1.63;;;23.20;88.00;;;;;;5051286;28;20028;-72
2022/05/06 06:50:00;;;;;;;0.22;0.22;;;23.50;90.60;;;;;;5051006;28;20021;-72
2022/05/06 06:52:26;;;;;;;0.20;0.20;;;23.40;91.30;;;;;;5047130;28;20476;-71
2022/05/06 06:54:52;;;;;;;1.75;0.77;;;23.50;90.30;;;;;;5050403;28;20158;-71
2022/05/06 06:57:18;;;;;;;1.02;0.93;;;23.20;88.10;;;;;;5058198;28;20048;-72
2022/05/06 06:59:44;;;;;;;2.17;0.93;;;23.30;88.40;;;;;;5059293;28;20034;-73
2022/05/06 07:02:10;;;;;;;14.65;1.73;;;23.60;89.00;;;;;;5053986;28;20108;-71
2022/05/06 07:04:36;;;;;;;3.00;0.82;;;23.40;89.30;;;;;;5046862;28;20041;-72
2022/05/06 07:12:34;;;;;;;0.88;0.70;;;23.80;81.40;;;;;;5044270;28;20051;-72
2022/05/06 07:15:02;;;;;;;1.55;1.20;;;23.50;84.30;;;;;;5052356;28;20056;-71
2022/05/06 07:17:29;;;;;;;0.28;0.20;;;23.40;82.00;;;;;;5048146;28;20404;-71
2022/05/06 07:19:55;;;;;;;6.50;0.20;;;23.40;73.80;;;;;;5050282;28;20014;-72
2022/05/06 07:22:21;;;;;;;9.55;5.40;;;23.40;72.90;;;;;;5062040;28;20528;-72
2022/05/06 07:24:47;;;;;;;1.02;0.40;;;23.60;69.50;;;;;;5044855;28;20021;-72
2022/05/06 07:27:13;;;;;;;0.00;0.00;;;23.40;70.10;;;;;;5047568;28;20555;-73
2022/05/06 07:29:40;;;;;;;0.00;0.00;;;23.60;70.60;;;;;;5049273;28;20399;-72
2022/05/06 07:32:06;;;;;;;0.90;0.38;;;23.90;68.70;;;;;;5044981;28;20033;-73
2022/05/06 07:34:32;;;;;;;0.10;0.10;;;23.90;64.80;;;;;;5044906;28;20165;-71
2022/05/06 07:36:58;;;;;;;1.10;0.80;;;23.80;63.50;;;;;;5047819;28;20469;-73
2022/05/06 07:39:25;;;;;;;0.00;0.00;;;23.80;59.10;;;;;;5043872;28;20110;-73
2022/05/06 07:41:51;;;;;;;0.00;0.00;;;23.70;59.80;;;;;;5046311;28;20033;-73
2022/05/06 07:44:17;;;;;;;0.10;0.10;;;23.80;59.80;;;;;;5042614;28;20036;-73
2022/05/06 07:46:43;;;;;;;0.00;0.00;;;24.00;60.40;;;;;;5042973;28;20119;-72
2022/05/06 07:49:10;;;;;;;1.35;0.35;;;24.10;62.90;;;;;;5045595;28;20057;-73
2022/05/06 07:51:36;;;;;;;0.57;0.20;;;23.90;70.30;;;;;;5038119;28;20455;-73
2022/05/06 07:54:02;;;;;;;0.47;0.47;;;24.00;73.70;;;;;;5027765;28;20610;-71
2022/05/06 07:56:32;;;;;;;17.08;2.00;;;24.20;73.60;;;;;;5070593;28;20026;-73
2022/05/06 07:58:58;;;;;;;4.47;0.43;;;24.40;68.00;;;;;;5076239;28;20495;-71
2022/05/06 08:06:55;;;;;;;0.30;0.20;;;24.30;69.80;;;;;;5048192;28;20028;-71
2022/05/06 08:09:21;;;;;;;0.98;0.60;;;24.50;67.60;;;;;;5048214;28;20083;-72
2022/05/06 08:11:48;;;;;;;4.85;1.88;;;24.60;67.00;;;;;;5044326;28;20017;-70
2022/05/06 08:14:17;;;;;;;0.00;0.00;;;24.60;65.10;;;;;;5044121;28;20157;-71
2022/05/06 08:16:44;;;;;;;7.75;3.38;;;24.60;65.30;;;;;;5039654;28;20014;-71
2022/05/06 08:19:10;;;;;;;1.95;1.10;;;24.60;65.80;;;;;;5045472;28;20526;-71
2022/05/06 08:21:37;;;;;;;0.00;0.00;;;24.30;67.20;;;;;;5043281;28;20028;-72
2022/05/06 08:24:03;;;;;;;0.80;0.22;;;24.30;68.60;;;;;;5044580;28;20541;-72
2022/05/06 08:26:29;;;;;;;19.48;0.85;;;24.50;64.60;;;;;;5040791;28;20032;-71
2022/05/06 08:28:55;;;;;;;0.00;0.00;;;24.50;63.60;;;;;;5049002;28;20124;-72
2022/05/06 08:31:21;;;;;;;0.55;0.40;;;24.60;60.30;;;;;;5043128;28;20033;-71
2022/05/06 08:33:47;;;;;;;11.80;1.55;;;24.40;60.10;;;;;;5070008;28;20430;-72
2022/05/06 08:36:14;;;;;;;2.17;0.77;;;24.50;62.30;;;;;;5046601;28;20104;-73
2022/05/06 08:38:40;;;;;;;0.00;0.00;;;24.50;62.50;;;;;;5044711;28;20018;-72
2022/05/06 08:41:06;;;;;;;0.57;0.57;;;24.60;61.40;;;;;;5037913;28;20470;-72
2022/05/06 08:43:32;;;;;;;0.00;0.00;;;24.40;67.50;;;;;;5041997;28;20025;-72
2022/05/06 08:51:32;;;;;;;3.22;2.20;;;25.00;60.00;;;;;;5045884;28;20041;-73
2022/05/06 08:53:58;;;;;;;0.00;0.00;;;24.80;58.90;;;;;;5046972;28;20049;-72
2022/05/06 08:56:24;;;;;;;0.10;0.05;;;24.80;58.60;;;;;;5038457;28;20389;-73
2022/05/06 08:58:50;;;;;;;4.00;0.32;;;24.60;57.90;;;;;;5044528;28;20029;-73
2022/05/06 09:01:21;;;;;;;0.03;0.03;;;24.60;58.50;;;;;;5041152;28;21498;-72
2022/05/06 09:03:48;;;;;;;0.00;0.00;;;24.80;61.30;;;;;;5045252;28;20025;-72
2022/05/06 09:06:30;;;;;;;0.32;0.20;;;25.00;60.10;;;;;;5049413;28;20108;-72
2022/05/06 09:08:57;;;;;;;4.55;0.47;;;24.90;58.90;;;;;;5039312;28;20048;-73
2022/05/06 09:14:16;;;;;;;0.98;0.60;;;24.60;60.40;;;;;;5043726;28;20055;-73
2022/05/06 09:16:44;;;;;;;8.60;0.43;;;24.80;61.00;;;;;;5045214;28;20043;-72
2022/05/06 09:19:22;;;;;;;0.10;0.10;;;25.10;61.10;;;;;;5046094;28;20481;-72
2022/05/06 09:22:05;;;;;;;0.40;0.40;;;24.70;61.10;;;;;;5037602;28;20033;-72
2022/05/06 09:24:33;;;;;;;0.00;0.00;;;24.50;61.50;;;;;;5045976;28;20086;-72
2022/05/06 09:27:08;;;;;;;0.17;0.15;;;24.70;63.00;;;;;;5044408;28;20032;-73
2022/05/06 09:29:57;;;;;;;2.85;0.38;;;24.80;63.50;;;;;;5036462;28;20033;-71
2022/05/06 09:32:24;;;;;;;0.90;0.45;;;24.90;64.40;;;;;;5030847;28;20029;-72
2022/05/06 09:34:55;;;;;;;0.75;0.75;;;24.80;66.30;;;;;;5046395;28;20469;-71
2022/05/06 09:37:34;;;;;;;0.00;0.00;;;24.70;66.40;;;;;;5043441;28;20036;-71
2022/05/06 09:40:21;;;;;;;0.00;0.00;;;24.80;66.90;;;;;;5049769;28;20029;-72
2022/05/06 09:43:00;;;;;;;0.28;0.28;;;24.90;68.30;;;;;;5038632;28;20595;-72
2022/05/06 09:45:39;;;;;;;0.65;0.30;;;25.00;67.60;;;;;;5038946;28;20035;-73
2022/05/06 09:48:08;;;;;;;0.00;0.00;;;24.90;66.90;;;;;;5036087;28;20400;-73
2022/05/06 09:50:42;;;;;;;0.00;0.00;;;24.80;68.20;;;;;;5045740;28;20025;-72
2022/05/06 09:53:12;;;;;;;3.25;0.90;;;24.60;67.10;;;;;;5039402;28;20041;-72
2022/05/06 09:55:46;;;;;;;1.30;0.68;;;24.50;66.00;;;;;;5050305;28;20455;-70
2022/05/06 09:58:13;;;;;;;0.00;0.00;;;24.50;67.20;;;;;;5043762;28;20186;-71
2022/05/06 10:00:43;;;;;;;0.75;0.75;;;24.70;66.50;;;;;;5045012;28;20032;-72
2022/05/06 10:03:12;;;;;;;0.00;0.00;;;25.00;64.40;;;;;;5045206;28;20025;-71
2022/05/06 10:05:39;;;;;;;0.00;0.00;;;25.00;61.70;;;;;;5046993;28;20033;-72
2022/05/06 10:08:13;;;;;;;0.00;0.00;;;24.70;62.50;;;;;;5046365;28;20430;-72
2022/05/06 10:10:44;;;;;;;0.20;0.20;;;24.40;63.50;;;;;;5043132;28;20506;-69
2022/05/06 10:13:22;;;;;;;0.10;0.10;;;24.70;63.30;;;;;;5047536;28;20032;-70
2022/05/06 10:15:50;;;;;;;7.68;4.97;;;24.80;61.40;;;;;;5041436;28;20044;-74
2022/05/06 10:18:37;;;;;;;0.00;0.00;;;24.60;62.10;;;;;;5047049;28;20032;-75
2022/05/06 10:21:16;;;;;;;2.45;1.27;;;24.60;61.80;;;;;;5047911;28;20028;-75
2022/05/06 10:23:51;;;;;;;0.00;0.00;;;24.80;60.80;;;;;;5040190;28;20350;-73
2022/05/06 10:26:39;;;;;;;0.30;0.30;;;24.80;60.00;;;;;;5047627;28;20078;-73
2022/05/06 10:35:02;;;;;;;0.00;0.00;;;25.20;54.30;;;;;;5021847;28;20059;-73
2022/05/06 10:37:39;;;;;;;0.00;0.00;;;25.20;52.60;;;;;;5041968;28;20099;-75
2022/05/06 10:40:25;;;;;;;0.00;0.00;;;25.20;50.90;;;;;;5041986;28;20033;-75
2022/05/06 10:42:52;;;;;;;0.00;0.00;;;25.10;52.60;;;;;;5040237;28;20038;-74
2022/05/06 10:45:33;;;;;;;0.00;0.00;;;25.10;50.50;;;;;;5047014;28;20078;-75
2022/05/06 10:48:00;;;;;;;0.00;0.00;;;24.70;50.30;;;;;;5041952;28;20026;-75
2022/05/06 10:50:38;;;;;;;0.22;0.08;;;24.80;51.20;;;;;;5048886;28;20499;-74
2022/05/06 10:53:05;;;;;;;0.10;0.10;;;24.40;54.40;;;;;;5042513;28;20026;-75
2022/05/06 10:55:31;;;;;;;0.00;0.00;;;24.20;55.90;;;;;;5043515;28;20044;-75
2022/05/06 10:58:03;;;;;;;0.00;0.00;;;24.20;55.80;;;;;;5049413;28;20052;-75
2022/05/06 11:00:30;;;;;;;0.00;0.00;;;24.20;53.40;;;;;;5046042;28;20133;-74
2022/05/06 11:03:01;;;;;;;0.00;0.00;;;24.40;55.50;;;;;;5039840;28;20055;-75
2022/05/06 11:05:29;;;;;;;0.00;0.00;;;24.70;56.60;;;;;;5048526;28;20068;-76
2022/05/06 11:07:59;;;;;;;0.00;0.00;;;24.80;56.40;;;;;;5041911;28;20032;-76
2022/05/06 11:10:27;;;;;;;0.03;0.03;;;24.80;56.50;;;;;;5046897;28;20064;-71
2022/05/06 11:12:57;;;;;;;0.00;0.00;;;25.00;57.00;;;;;;5049805;28;20082;-71
2022/05/06 11:15:31;;;;;;;0.00;0.00;;;24.60;57.90;;;;;;5053652;28;20078;-72
2022/05/06 11:18:04;;;;;;;0.00;0.00;;;24.60;59.00;;;;;;5042317;28;20021;-71
2022/05/06 11:20:33;;;;;;;0.00;0.00;;;24.80;62.00;;;;;;5044378;28;20017;-72
2022/05/06 11:23:16;;;;;;;0.00;0.00;;;24.90;63.90;;;;;;5041465;28;20413;-73
2022/05/06 11:25:47;;;;;;;0.00;0.00;;;24.90;63.70;;;;;;5043353;28;20029;-73
2022/05/06 11:28:20;;;;;;;0.00;0.00;;;24.90;63.90;;;;;;5043209;28;20048;-73
2022/05/06 11:30:49;;;;;;;0.00;0.00;;;25.00;63.50;;;;;;5040847;28;20022;-72
2022/05/06 11:33:27;;;;;;;0.00;0.00;;;25.10;64.20;;;;;;5041863;28;20072;-73
2022/05/06 11:36:15;;;;;;;0.35;0.35;;;25.30;64.40;;;;;;5042433;28;20033;-73
2022/05/06 11:38:42;;;;;;;0.00;0.00;;;25.60;63.50;;;;;;5039786;28;20044;-73
2022/05/06 11:41:13;;;;;;;1.65;0.65;;;25.50;60.50;;;;;;5038700;28;20018;-73
2022/05/06 11:43:43;;;;;;;0.00;0.00;;;25.30;59.60;;;;;;5042505;28;20378;-73
2022/05/06 11:49:24;;;;;;;0.32;0.32;;;25.00;60.00;;;;;;5035991;28;20117;-73
2022/05/06 11:51:50;;;;;;;0.00;0.00;;;25.30;59.50;;;;;;5035647;28;20101;-72
2022/05/06 11:54:17;;;;;;;0.00;0.00;;;25.40;58.10;;;;;;5043177;28;20049;-73
2022/05/06 11:56:44;;;;;;;0.00;0.00;;;25.60;57.50;;;;;;5041706;28;20028;-73
2022/05/06 11:59:11;;;;;;;0.00;0.00;;;25.60;57.90;;;;;;5040337;28;20025;-72
2022/05/06 12:01:39;;;;;;;0.00;0.00;;;25.50;59.00;;;;;;5040847;28;20025;-75
2022/05/06 12:04:07;;;;;;;0.00;0.00;;;25.50;58.50;;;;;;5047203;28;20035;-75
2022/05/06 12:06:38;;;;;;;0.00;0.00;;;25.50;58.30;;;;;;5050203;28;20608;-74
2022/05/06 12:09:16;;;;;;;0.00;0.00;;;25.60;58.30;;;;;;5051989;28;20029;-75
2022/05/06 12:11:43;;;;;;;0.00;0.00;;;25.40;59.90;;;;;;5038757;28;20034;-75
2022/05/06 12:14:13;;;;;;;0.00;0.00;;;25.40;61.00;;;;;;5042935;28;20025;-75
2022/05/06 12:17:00;;;;;;;0.00;0.00;;;25.30;61.50;;;;;;5059311;28;20056;-75
2022/05/06 12:19:33;;;;;;;0.00;0.00;;;25.20;61.50;;;;;;5046935;28;20478;-75
2022/05/06 12:22:04;;;;;;;0.00;0.00;;;25.10;61.30;;;;;;5044122;28;20035;-75
2022/05/06 12:24:40;;;;;;;0.00;0.00;;;25.10;57.90;;;;;;5050742;28;20036;-75
2022/05/06 12:27:08;;;;;;;0.00;0.00;;;24.90;57.00;;;;;;5049653;28;20079;-74
2022/05/06 12:29:41;;;;;;;0.85;0.85;;;24.70;57.50;;;;;;5044800;28;20037;-76
2022/05/06 12:32:08;;;;;;;2.00;1.75;;;24.70;57.40;;;;;;5045661;28;20038;-74
2022/05/06 12:34:34;;;;;;;0.00;0.00;;;24.70;58.60;;;;;;5040593;28;20025;-75
2022/05/06 12:37:16;;;;;;;0.00;0.00;;;24.70;59.30;;;;;;5043922;28;20025;-75
2022/05/06 12:39:48;;;;;;;0.03;0.03;;;24.60;60.70;;;;;;5040431;28;20024;-75
2022/05/06 12:42:18;;;;;;;0.00;0.00;;;24.40;61.70;;;;;;5045886;28;20575;-75
2022/05/06 12:44:45;;;;;;;2.72;2.55;;;24.30;62.40;;;;;;5049296;28;20029;-76
2022/05/06 12:50:12;;;;;;;0.05;0.03;;;24.20;64.10;;;;;;5050509;28;20114;-75
2022/05/06 12:52:39;;;;;;;0.32;0.32;;;24.00;65.30;;;;;;5061146;28;20028;-75
2022/05/06 12:55:06;;;;;;;44.72;30.33;;;23.80;66.90;;;;;;5034515;28;20128;-76
2022/05/06 12:57:32;;;;;;;0.00;0.00;;;23.80;67.90;;;;;;5052944;28;20535;-75
2022/05/06 12:59:58;;;;;;;0.10;0.10;;;23.60;69.30;;;;;;5052967;28;20465;-75
2022/05/06 13:02:25;;;;;;;0.00;0.00;;;23.50;71.10;;;;;;5052397;28;20017;-75
2022/05/06 13:04:51;;;;;;;0.10;0.10;;;23.50;72.40;;;;;;5044859;28;20532;-75
2022/05/06 13:07:17;;;;;;;0.00;0.00;;;23.40;74.30;;;;;;5046519;28;20036;-75
2022/05/06 13:09:43;;;;;;;0.00;0.00;;;23.40;75.60;;;;;;5048752;28;20056;-75
2022/05/06 13:12:10;;;;;;;0.00;0.00;;;23.40;77.10;;;;;;5036901;28;20028;-76
2022/05/06 13:14:36;;;;;;;0.00;0.00;;;23.40;79.10;;;;;;5052503;28;20024;-76
2022/05/06 13:17:03;;;;;;;0.00;0.00;;;23.30;82.20;;;;;;5052377;28;20747;-74
2022/05/06 13:19:29;;;;;;;0.00;0.00;;;23.30;85.00;;;;;;5041938;28;20026;-75
2022/05/06 13:21:56;;;;;;;0.00;0.00;;;23.30;88.50;;;;;;5043579;28;20307;-75
2022/05/06 13:24:23;;;;;;;0.00;0.00;;;23.20;91.60;;;;;;5047610;28;20025;-74
2022/05/06 13:26:50;;;;;;;0.00;0.00;;;23.30;94.50;;;;;;5045692;28;20385;-74
2022/05/06 13:29:16;;;;;;;0.20;0.20;;;23.30;96.50;;;;;;5042939;28;20053;-74
2022/05/06 13:31:42;;;;;;;0.00;0.00;;;23.30;98.50;;;;;;5037830;28;20040;-75
2022/05/06 13:34:08;;;;;;;0.00;0.00;;;23.20;99.90;;;;;;5039299;28;20458;-75
2022/05/06 13:36:34;;;;;;;0.25;0.25;;;23.10;99.90;;;;;;5039703;28;20029;-75
2022/05/06 13:39:01;;;;;;;2.95;2.75;;;23.10;99.90;;;;;;5038505;28;20060;-75
2022/05/06 13:41:27;;;;;;;0.00;0.00;;;23.00;99.90;;;;;;5033603;28;20018;-75
2022/05/06 13:43:54;;;;;;;1.80;1.70;;;23.10;99.90;;;;;;5043874;28;20029;-76
2022/05/06 13:46:21;;;;;;;0.75;0.75;;;23.10;99.90;;;;;;5040403;28;20060;-75